Adams Mills, Ohio
Current Conditions -  °F | °C
As of 10:53 AM on Friday 28 Nov 2014 (Local Time) from KZZV Reporting Station
Broken Clouds Broken Clouds  
Wind Chill: 18°   Ceiling: 2200
Heat Index: 27°   Visibility: 10mi
Dew Point: 17°   Wind: 9mph
Humidity: 66%   Direction: 230°SW
Pressure: 30.37"   Gusts: NA
Location:  40.1482°N, 82.0354°W
Report Text: KZZV 281553Z AUTO 23008KT 10SM BKN022 BKN028 M03/M08 A3037 RMK AO2 SLP295 T10281083
Loading
Personal Weather Stations






























Interactive Weather Map New forecast layout! Learn more

10-Day Weather Forecast

Advertisements
Track Severe Weather on mobile